sensor_id;sensor_type;location;lat;lon;timestamp;P1;durP1;ratioP1;P2;durP2;ratioP2
15317;SDS011;7759;52.528;13.346;2022-12-11T00:01:10;11.13;;;5.83;;
15317;SDS011;7759;52.528;13.346;2022-12-11T00:03:36;7.67;;;4.67;;
15317;SDS011;7759;52.528;13.346;2022-12-11T00:06:04;12.67;;;5.70;;
15317;SDS011;7759;52.528;13.346;2022-12-11T00:08:30;9.80;;;5.13;;
15317;SDS011;7759;52.528;13.346;2022-12-11T00:10:56;10.97;;;4.97;;
15317;SDS011;7759;52.528;13.346;2022-12-11T00:13:22;7.20;;;3.53;;
15317;SDS011;7759;52.528;13.346;2022-12-11T00:15:48;7.93;;;3.83;;
15317;SDS011;7759;52.528;13.346;2022-12-11T00:18:13;6.97;;;4.37;;
15317;SDS011;7759;52.528;13.346;2022-12-11T00:20:40;11.07;;;5.80;;
15317;SDS011;7759;52.528;13.346;2022-12-11T00:23:05;7.07;;;4.23;;
15317;SDS011;7759;52.528;13.346;2022-12-11T00:25:31;9.33;;;4.77;;
15317;SDS011;7759;52.528;13.346;2022-12-11T00:27:57;9.53;;;4.80;;
15317;SDS011;7759;52.528;13.346;2022-12-11T00:30:23;10.57;;;5.37;;
15317;SDS011;7759;52.528;13.346;2022-12-11T00:32:52;11.27;;;6.53;;
15317;SDS011;7759;52.528;13.346;2022-12-11T00:35:18;10.33;;;5.10;;
15317;SDS011;7759;52.528;13.346;2022-12-11T00:37:44;9.33;;;4.77;;
15317;SDS011;7759;52.528;13.346;2022-12-11T00:40:10;6.27;;;3.90;;
15317;SDS011;7759;52.528;13.346;2022-12-11T00:42:36;10.03;;;5.10;;
15317;SDS011;7759;52.528;13.346;2022-12-11T00:45:02;8.53;;;4.63;;
15317;SDS011;7759;52.528;13.346;2022-12-11T00:47:28;9.20;;;5.17;;
15317;SDS011;7759;52.528;13.346;2022-12-11T00:49:54;11.90;;;5.30;;
15317;SDS011;7759;52.528;13.346;2022-12-11T00:52:20;10.50;;;4.87;;
15317;SDS011;7759;52.528;13.346;2022-12-11T00:54:46;10.67;;;5.67;;
15317;SDS011;7759;52.528;13.346;2022-12-11T00:57:11;12.10;;;5.50;;
15317;SDS011;7759;52.528;13.346;2022-12-11T00:59:39;11.73;;;5.60;;
15317;SDS011;7759;52.528;13.346;2022-12-11T01:02:05;9.60;;;5.60;;
15317;SDS011;7759;52.528;13.346;2022-12-11T01:04:31;13.57;;;6.23;;
15317;SDS011;7759;52.528;13.346;2022-12-11T01:06:56;11.43;;;5.67;;
15317;SDS011;7759;52.528;13.346;2022-12-11T01:09:22;9.67;;;4.97;;
15317;SDS011;7759;52.528;13.346;2022-12-11T01:12:07;13.77;;;6.10;;
15317;SDS011;7759;52.528;13.346;2022-12-11T01:14:33;12.50;;;5.73;;
15317;SDS011;7759;52.528;13.346;2022-12-11T01:16:59;13.47;;;6.07;;
15317;SDS011;7759;52.528;13.346;2022-12-11T01:19:25;11.33;;;5.87;;
15317;SDS011;7759;52.528;13.346;2022-12-11T01:21:50;14.40;;;6.60;;
15317;SDS011;7759;52.528;13.346;2022-12-11T01:24:16;12.13;;;5.77;;
15317;SDS011;7759;52.528;13.346;2022-12-11T01:26:42;10.13;;;4.93;;
15317;SDS011;7759;52.528;13.346;2022-12-11T01:29:08;13.40;;;6.17;;
15317;SDS011;7759;52.528;13.346;2022-12-11T01:31:35;11.83;;;6.20;;
15317;SDS011;7759;52.528;13.346;2022-12-11T01:34:02;10.20;;;5.87;;
15317;SDS011;7759;52.528;13.346;2022-12-11T01:36:28;12.07;;;6.10;;
15317;SDS011;7759;52.528;13.346;2022-12-11T01:38:53;13.70;;;6.27;;
15317;SDS011;7759;52.528;13.346;2022-12-11T01:41:19;9.00;;;5.03;;
15317;SDS011;7759;52.528;13.346;2022-12-11T01:46:20;18.03;;;7.13;;
15317;SDS011;7759;52.528;13.346;2022-12-11T01:48:46;12.40;;;6.13;;
15317;SDS011;7759;52.528;13.346;2022-12-11T01:51:12;11.40;;;5.63;;
15317;SDS011;7759;52.528;13.346;2022-12-11T01:53:42;16.33;;;7.37;;
15317;SDS011;7759;52.528;13.346;2022-12-11T01:56:10;17.20;;;7.17;;
15317;SDS011;7759;52.528;13.346;2022-12-11T01:58:38;17.37;;;6.87;;
15317;SDS011;7759;52.528;13.346;2022-12-11T02:01:04;11.80;;;4.73;;
15317;SDS011;7759;52.528;13.346;2022-12-11T02:03:30;12.07;;;5.90;;
15317;SDS011;7759;52.528;13.346;2022-12-11T02:06:00;13.23;;;6.00;;
15317;SDS011;7759;52.528;13.346;2022-12-11T02:08:26;13.03;;;6.63;;
15317;SDS011;7759;52.528;13.346;2022-12-11T02:11:00;14.50;;;6.50;;
15317;SDS011;7759;52.528;13.346;2022-12-11T02:13:45;12.07;;;5.53;;
15317;SDS011;7759;52.528;13.346;2022-12-11T02:16:17;12.47;;;6.13;;
15317;SDS011;7759;52.528;13.346;2022-12-11T02:19:07;11.17;;;5.53;;
15317;SDS011;7759;52.528;13.346;2022-12-11T02:21:43;15.40;;;6.67;;
15317;SDS011;7759;52.528;13.346;2022-12-11T02:26:47;10.43;;;5.90;;
15317;SDS011;7759;52.528;13.346;2022-12-11T02:29:17;10.60;;;5.50;;
15317;SDS011;7759;52.528;13.346;2022-12-11T02:31:45;14.23;;;6.50;;
15317;SDS011;7759;52.528;13.346;2022-12-11T02:34:22;17.83;;;8.43;;
15317;SDS011;7759;52.528;13.346;2022-12-11T02:36:50;14.90;;;7.10;;
15317;SDS011;7759;52.528;13.346;2022-12-11T02:39:17;14.60;;;7.00;;
15317;SDS011;7759;52.528;13.346;2022-12-11T02:41:45;13.90;;;6.70;;
15317;SDS011;7759;52.528;13.346;2022-12-11T02:44:13;13.20;;;6.00;;
15317;SDS011;7759;52.528;13.346;2022-12-11T02:46:39;18.63;;;7.33;;
15317;SDS011;7759;52.528;13.346;2022-12-11T02:49:05;17.33;;;7.43;;
15317;SDS011;7759;52.528;13.346;2022-12-11T02:51:33;14.83;;;6.53;;
15317;SDS011;7759;52.528;13.346;2022-12-11T02:54:00;18.37;;;7.60;;
15317;SDS011;7759;52.528;13.346;2022-12-11T02:56:31;12.03;;;6.73;;
15317;SDS011;7759;52.528;13.346;2022-12-11T02:58:59;11.40;;;6.77;;
15317;SDS011;7759;52.528;13.346;2022-12-11T03:01:26;15.13;;;6.83;;
15317;SDS011;7759;52.528;13.346;2022-12-11T03:03:53;12.27;;;6.40;;
15317;SDS011;7759;52.528;13.346;2022-12-11T03:06:20;12.53;;;6.20;;
15317;SDS011;7759;52.528;13.346;2022-12-11T03:08:46;14.57;;;6.27;;
15317;SDS011;7759;52.528;13.346;2022-12-11T03:11:15;16.87;;;7.27;;
15317;SDS011;7759;52.528;13.346;2022-12-11T03:13:41;14.30;;;6.80;;
15317;SDS011;7759;52.528;13.346;2022-12-11T03:16:16;14.20;;;6.67;;
15317;SDS011;7759;52.528;13.346;2022-12-11T03:18:47;14.87;;;6.83;;
15317;SDS011;7759;52.528;13.346;2022-12-11T03:21:22;13.73;;;6.80;;
15317;SDS011;7759;52.528;13.346;2022-12-11T03:23:50;13.10;;;6.30;;
15317;SDS011;7759;52.528;13.346;2022-12-11T03:26:20;15.80;;;6.10;;
15317;SDS011;7759;52.528;13.346;2022-12-11T03:28:48;13.57;;;6.90;;
15317;SDS011;7759;52.528;13.346;2022-12-11T03:31:21;13.17;;;6.53;;
15317;SDS011;7759;52.528;13.346;2022-12-11T03:33:48;13.30;;;6.27;;
15317;SDS011;7759;52.528;13.346;2022-12-11T03:36:17;15.37;;;6.77;;
15317;SDS011;7759;52.528;13.346;2022-12-11T03:38:50;16.20;;;8.07;;
15317;SDS011;7759;52.528;13.346;2022-12-11T03:41:17;12.80;;;6.50;;
15317;SDS011;7759;52.528;13.346;2022-12-11T03:43:43;15.07;;;7.13;;
15317;SDS011;7759;52.528;13.346;2022-12-11T03:46:10;15.83;;;7.37;;
15317;SDS011;7759;52.528;13.346;2022-12-11T03:48:38;13.07;;;6.33;;
15317;SDS011;7759;52.528;13.346;2022-12-11T03:51:06;13.63;;;6.23;;
15317;SDS011;7759;52.528;13.346;2022-12-11T03:53:33;15.07;;;7.13;;
15317;SDS011;7759;52.528;13.346;2022-12-11T03:55:59;16.87;;;7.80;;
15317;SDS011;7759;52.528;13.346;2022-12-11T03:58:27;11.70;;;6.07;;
15317;SDS011;7759;52.528;13.346;2022-12-11T04:00:53;14.53;;;7.20;;
15317;SDS011;7759;52.528;13.346;2022-12-11T04:03:19;14.60;;;6.77;;
15317;SDS011;7759;52.528;13.346;2022-12-11T04:05:49;14.73;;;7.80;;
15317;SDS011;7759;52.528;13.346;2022-12-11T04:08:16;13.97;;;7.67;;
15317;SDS011;7759;52.528;13.346;2022-12-11T04:10:42;13.00;;;6.50;;
15317;SDS011;7759;52.528;13.346;2022-12-11T04:13:09;12.50;;;5.97;;
15317;SDS011;7759;52.528;13.346;2022-12-11T04:15:35;15.57;;;7.03;;
15317;SDS011;7759;52.528;13.346;2022-12-11T04:18:01;13.40;;;6.77;;
15317;SDS011;7759;52.528;13.346;2022-12-11T04:20:46;13.17;;;7.10;;
15317;SDS011;7759;52.528;13.346;2022-12-11T04:23:31;14.10;;;7.60;;
15317;SDS011;7759;52.528;13.346;2022-12-11T04:26:16;14.73;;;6.53;;
15317;SDS011;7759;52.528;13.346;2022-12-11T04:28:43;12.97;;;6.47;;
15317;SDS011;7759;52.528;13.346;2022-12-11T04:31:10;15.47;;;7.20;;
15317;SDS011;7759;52.528;13.346;2022-12-11T04:33:36;17.13;;;7.37;;
15317;SDS011;7759;52.528;13.346;2022-12-11T04:36:02;16.47;;;7.77;;
15317;SDS011;7759;52.528;13.346;2022-12-11T04:38:28;13.70;;;6.87;;
15317;SDS011;7759;52.528;13.346;2022-12-11T04:40:58;16.17;;;7.23;;
15317;SDS011;7759;52.528;13.346;2022-12-11T04:43:24;15.20;;;7.10;;
15317;SDS011;7759;52.528;13.346;2022-12-11T04:45:50;13.67;;;5.97;;
15317;SDS011;7759;52.528;13.346;2022-12-11T04:48:15;13.67;;;7.17;;
15317;SDS011;7759;52.528;13.346;2022-12-11T04:50:41;16.63;;;7.63;;
15317;SDS011;7759;52.528;13.346;2022-12-11T04:53:07;21.63;;;8.10;;
15317;SDS011;7759;52.528;13.346;2022-12-11T04:55:33;14.43;;;6.50;;
15317;SDS011;7759;52.528;13.346;2022-12-11T04:57:59;12.10;;;5.73;;
15317;SDS011;7759;52.528;13.346;2022-12-11T05:00:25;17.53;;;7.33;;
15317;SDS011;7759;52.528;13.346;2022-12-11T05:02:51;11.63;;;6.67;;
15317;SDS011;7759;52.528;13.346;2022-12-11T05:05:17;11.73;;;5.93;;
15317;SDS011;7759;52.528;13.346;2022-12-11T05:07:43;14.90;;;6.17;;
15317;SDS011;7759;52.528;13.346;2022-12-11T05:10:09;13.73;;;6.97;;
15317;SDS011;7759;52.528;13.346;2022-12-11T05:12:35;15.70;;;6.50;;
15317;SDS011;7759;52.528;13.346;2022-12-11T05:15:01;14.83;;;6.50;;
15317;SDS011;7759;52.528;13.346;2022-12-11T05:17:27;11.87;;;6.93;;
15317;SDS011;7759;52.528;13.346;2022-12-11T05:19:53;12.03;;;6.43;;
15317;SDS011;7759;52.528;13.346;2022-12-11T05:22:18;11.87;;;5.83;;
15317;SDS011;7759;52.528;13.346;2022-12-11T05:24:44;15.30;;;7.27;;
15317;SDS011;7759;52.528;13.346;2022-12-11T05:27:10;16.07;;;6.90;;
15317;SDS011;7759;52.528;13.346;2022-12-11T05:29:36;14.53;;;6.27;;
15317;SDS011;7759;52.528;13.346;2022-12-11T05:32:02;17.13;;;8.50;;
15317;SDS011;7759;52.528;13.346;2022-12-11T05:34:29;12.63;;;6.77;;
15317;SDS011;7759;52.528;13.346;2022-12-11T05:36:54;15.83;;;7.20;;
15317;SDS011;7759;52.528;13.346;2022-12-11T05:39:20;18.20;;;8.60;;
15317;SDS011;7759;52.528;13.346;2022-12-11T05:41:46;17.07;;;6.87;;
15317;SDS011;7759;52.528;13.346;2022-12-11T05:44:12;12.40;;;6.50;;
15317;SDS011;7759;52.528;13.346;2022-12-11T05:46:38;11.70;;;5.87;;
15317;SDS011;7759;52.528;13.346;2022-12-11T05:49:05;16.63;;;7.03;;
15317;SDS011;7759;52.528;13.346;2022-12-11T05:51:31;13.83;;;6.87;;
15317;SDS011;7759;52.528;13.346;2022-12-11T05:54:00;13.87;;;6.80;;
15317;SDS011;7759;52.528;13.346;2022-12-11T05:56:30;18.57;;;6.87;;
15317;SDS011;7759;52.528;13.346;2022-12-11T05:58:57;16.37;;;7.13;;
15317;SDS011;7759;52.528;13.346;2022-12-11T06:01:27;16.77;;;7.63;;
15317;SDS011;7759;52.528;13.346;2022-12-11T06:03:54;22.83;;;9.87;;
15317;SDS011;7759;52.528;13.346;2022-12-11T06:06:20;13.43;;;6.77;;
15317;SDS011;7759;52.528;13.346;2022-12-11T06:08:48;14.03;;;6.20;;
15317;SDS011;7759;52.528;13.346;2022-12-11T06:11:14;15.17;;;7.23;;
15317;SDS011;7759;52.528;13.346;2022-12-11T06:13:40;13.23;;;6.90;;
15317;SDS011;7759;52.528;13.346;2022-12-11T06:16:06;14.47;;;6.87;;
15317;SDS011;7759;52.528;13.346;2022-12-11T06:18:36;17.23;;;7.83;;
15317;SDS011;7759;52.528;13.346;2022-12-11T06:21:09;12.33;;;5.43;;
15317;SDS011;7759;52.528;13.346;2022-12-11T06:23:35;10.73;;;5.67;;
15317;SDS011;7759;52.528;13.346;2022-12-11T06:26:02;14.53;;;6.23;;
15317;SDS011;7759;52.528;13.346;2022-12-11T06:28:28;12.67;;;5.67;;
15317;SDS011;7759;52.528;13.346;2022-12-11T06:30:56;14.80;;;6.50;;
15317;SDS011;7759;52.528;13.346;2022-12-11T06:33:22;15.23;;;7.17;;
15317;SDS011;7759;52.528;13.346;2022-12-11T06:35:49;11.17;;;5.57;;
15317;SDS011;7759;52.528;13.346;2022-12-11T06:38:15;13.73;;;6.13;;
15317;SDS011;7759;52.528;13.346;2022-12-11T06:40:41;10.13;;;5.53;;
15317;SDS011;7759;52.528;13.346;2022-12-11T06:43:07;11.40;;;4.73;;
15317;SDS011;7759;52.528;13.346;2022-12-11T06:45:33;16.13;;;6.33;;
15317;SDS011;7759;52.528;13.346;2022-12-11T06:47:58;12.10;;;5.37;;
15317;SDS011;7759;52.528;13.346;2022-12-11T06:50:25;10.60;;;5.20;;
15317;SDS011;7759;52.528;13.346;2022-12-11T06:52:51;11.80;;;5.87;;
15317;SDS011;7759;52.528;13.346;2022-12-11T06:55:16;10.60;;;4.70;;
15317;SDS011;7759;52.528;13.346;2022-12-11T06:57:42;13.53;;;5.07;;
15317;SDS011;7759;52.528;13.346;2022-12-11T07:00:08;14.47;;;6.03;;
15317;SDS011;7759;52.528;13.346;2022-12-11T07:02:35;10.83;;;4.97;;
15317;SDS011;7759;52.528;13.346;2022-12-11T07:05:00;13.13;;;5.30;;
15317;SDS011;7759;52.528;13.346;2022-12-11T07:07:26;13.70;;;5.73;;
15317;SDS011;7759;52.528;13.346;2022-12-11T07:09:52;9.50;;;4.50;;
15317;SDS011;7759;52.528;13.346;2022-12-11T07:12:18;9.80;;;5.00;;
15317;SDS011;7759;52.528;13.346;2022-12-11T07:14:44;9.57;;;5.00;;
15317;SDS011;7759;52.528;13.346;2022-12-11T07:17:10;11.30;;;4.37;;
15317;SDS011;7759;52.528;13.346;2022-12-11T07:19:36;7.00;;;4.07;;
15317;SDS011;7759;52.528;13.346;2022-12-11T07:22:02;8.30;;;4.67;;
15317;SDS011;7759;52.528;13.346;2022-12-11T07:24:28;11.20;;;5.37;;
15317;SDS011;7759;52.528;13.346;2022-12-11T07:26:54;8.60;;;4.30;;
15317;SDS011;7759;52.528;13.346;2022-12-11T07:29:20;8.13;;;4.40;;
15317;SDS011;7759;52.528;13.346;2022-12-11T07:31:46;12.93;;;5.53;;
15317;SDS011;7759;52.528;13.346;2022-12-11T07:34:12;9.50;;;5.53;;
15317;SDS011;7759;52.528;13.346;2022-12-11T07:36:38;8.13;;;4.20;;
15317;SDS011;7759;52.528;13.346;2022-12-11T07:39:04;14.47;;;5.70;;
15317;SDS011;7759;52.528;13.346;2022-12-11T07:41:31;8.37;;;4.93;;
15317;SDS011;7759;52.528;13.346;2022-12-11T07:43:58;8.83;;;4.87;;
15317;SDS011;7759;52.528;13.346;2022-12-11T07:46:26;11.90;;;5.27;;
15317;SDS011;7759;52.528;13.346;2022-12-11T07:48:52;12.03;;;5.13;;
15317;SDS011;7759;52.528;13.346;2022-12-11T07:51:19;14.20;;;5.73;;
15317;SDS011;7759;52.528;13.346;2022-12-11T07:53:48;7.77;;;4.27;;
15317;SDS011;7759;52.528;13.346;2022-12-11T07:56:15;12.00;;;5.17;;
15317;SDS011;7759;52.528;13.346;2022-12-11T07:58:41;8.70;;;4.67;;
15317;SDS011;7759;52.528;13.346;2022-12-11T08:01:11;7.80;;;3.60;;
15317;SDS011;7759;52.528;13.346;2022-12-11T08:03:38;11.40;;;4.80;;
15317;SDS011;7759;52.528;13.346;2022-12-11T08:06:04;12.27;;;5.60;;
15317;SDS011;7759;52.528;13.346;2022-12-11T08:08:30;7.37;;;3.77;;
15317;SDS011;7759;52.528;13.346;2022-12-11T08:11:03;9.20;;;4.63;;
15317;SDS011;7759;52.528;13.346;2022-12-11T08:13:30;10.10;;;4.00;;
15317;SDS011;7759;52.528;13.346;2022-12-11T08:15:56;11.23;;;5.07;;
15317;SDS011;7759;52.528;13.346;2022-12-11T08:18:22;9.13;;;4.73;;
15317;SDS011;7759;52.528;13.346;2022-12-11T08:20:47;11.53;;;4.93;;
15317;SDS011;7759;52.528;13.346;2022-12-11T08:23:13;8.80;;;4.70;;
15317;SDS011;7759;52.528;13.346;2022-12-11T08:25:39;9.87;;;5.17;;
15317;SDS011;7759;52.528;13.346;2022-12-11T08:28:05;9.33;;;4.33;;
15317;SDS011;7759;52.528;13.346;2022-12-11T08:30:31;13.13;;;4.30;;
15317;SDS011;7759;52.528;13.346;2022-12-11T08:32:57;8.83;;;4.27;;
15317;SDS011;7759;52.528;13.346;2022-12-11T08:35:23;10.57;;;4.10;;
15317;SDS011;7759;52.528;13.346;2022-12-11T08:37:49;8.33;;;4.47;;
15317;SDS011;7759;52.528;13.346;2022-12-11T08:40:15;11.30;;;5.77;;
15317;SDS011;7759;52.528;13.346;2022-12-11T08:42:41;12.60;;;5.67;;
15317;SDS011;7759;52.528;13.346;2022-12-11T08:45:07;11.73;;;5.33;;
15317;SDS011;7759;52.528;13.346;2022-12-11T08:47:33;10.17;;;4.90;;
15317;SDS011;7759;52.528;13.346;2022-12-11T08:49:59;9.43;;;4.93;;
15317;SDS011;7759;52.528;13.346;2022-12-11T08:52:25;12.63;;;5.43;;
15317;SDS011;7759;52.528;13.346;2022-12-11T08:54:51;9.13;;;4.43;;
15317;SDS011;7759;52.528;13.346;2022-12-11T08:57:17;12.60;;;5.37;;
15317;SDS011;7759;52.528;13.346;2022-12-11T08:59:43;8.40;;;4.57;;
15317;SDS011;7759;52.528;13.346;2022-12-11T09:02:10;14.60;;;6.13;;
15317;SDS011;7759;52.528;13.346;2022-12-11T09:04:36;7.47;;;3.97;;
15317;SDS011;7759;52.528;13.346;2022-12-11T09:07:02;9.90;;;5.13;;
15317;SDS011;7759;52.528;13.346;2022-12-11T09:09:28;13.53;;;5.97;;
15317;SDS011;7759;52.528;13.346;2022-12-11T09:11:54;15.77;;;6.57;;
15317;SDS011;7759;52.528;13.346;2022-12-11T09:14:20;11.43;;;4.77;;
15317;SDS011;7759;52.528;13.346;2022-12-11T09:16:46;12.33;;;5.07;;
15317;SDS011;7759;52.528;13.346;2022-12-11T09:19:12;12.83;;;5.57;;
15317;SDS011;7759;52.528;13.346;2022-12-11T09:21:39;9.33;;;4.67;;
15317;SDS011;7759;52.528;13.346;2022-12-11T09:24:05;8.93;;;4.53;;
15317;SDS011;7759;52.528;13.346;2022-12-11T09:26:31;9.03;;;4.97;;
15317;SDS011;7759;52.528;13.346;2022-12-11T09:28:57;10.83;;;5.27;;
15317;SDS011;7759;52.528;13.346;2022-12-11T09:31:27;10.43;;;5.00;;
15317;SDS011;7759;52.528;13.346;2022-12-11T09:33:55;9.40;;;5.10;;
15317;SDS011;7759;52.528;13.346;2022-12-11T09:36:22;10.60;;;5.60;;
15317;SDS011;7759;52.528;13.346;2022-12-11T09:38:48;11.17;;;4.90;;
15317;SDS011;7759;52.528;13.346;2022-12-11T09:43:48;9.30;;;5.53;;
15317;SDS011;7759;52.528;13.346;2022-12-11T09:46:15;9.67;;;4.73;;
15317;SDS011;7759;52.528;13.346;2022-12-11T09:48:46;9.57;;;4.83;;
15317;SDS011;7759;52.528;13.346;2022-12-11T09:51:18;10.20;;;4.47;;
15317;SDS011;7759;52.528;13.346;2022-12-11T09:53:46;10.80;;;4.80;;
15317;SDS011;7759;52.528;13.346;2022-12-11T09:56:26;10.20;;;4.77;;
15317;SDS011;7759;52.528;13.346;2022-12-11T10:01:48;8.80;;;4.73;;
15317;SDS011;7759;52.528;13.346;2022-12-11T10:04:24;8.83;;;4.70;;
15317;SDS011;7759;52.528;13.346;2022-12-11T10:10:16;17.10;;;7.40;;
15317;SDS011;7759;52.528;13.346;2022-12-11T10:17:56;13.33;;;5.77;;
15317;SDS011;7759;52.528;13.346;2022-12-11T10:20:24;11.03;;;5.20;;
15317;SDS011;7759;52.528;13.346;2022-12-11T10:22:51;14.37;;;4.93;;
15317;SDS011;7759;52.528;13.346;2022-12-11T10:25:23;13.53;;;6.23;;
15317;SDS011;7759;52.528;13.346;2022-12-11T10:27:52;12.97;;;5.30;;
15317;SDS011;7759;52.528;13.346;2022-12-11T10:30:21;10.30;;;4.47;;
15317;SDS011;7759;52.528;13.346;2022-12-11T10:35:34;12.03;;;4.60;;
15317;SDS011;7759;52.528;13.346;2022-12-11T10:40:37;12.90;;;6.03;;
15317;SDS011;7759;52.528;13.346;2022-12-11T10:43:04;14.13;;;6.20;;
15317;SDS011;7759;52.528;13.346;2022-12-11T10:45:30;13.97;;;5.97;;
15317;SDS011;7759;52.528;13.346;2022-12-11T10:48:03;10.17;;;5.37;;
15317;SDS011;7759;52.528;13.346;2022-12-11T10:50:30;10.57;;;4.60;;
15317;SDS011;7759;52.528;13.346;2022-12-11T10:52:56;10.97;;;5.27;;
15317;SDS011;7759;52.528;13.346;2022-12-11T10:55:26;12.20;;;6.37;;
15317;SDS011;7759;52.528;13.346;2022-12-11T10:57:54;10.83;;;4.87;;
15317;SDS011;7759;52.528;13.346;2022-12-11T11:00:34;12.97;;;5.83;;
15317;SDS011;7759;52.528;13.346;2022-12-11T11:03:01;10.83;;;5.00;;
15317;SDS011;7759;52.528;13.346;2022-12-11T11:05:29;9.70;;;4.83;;
15317;SDS011;7759;52.528;13.346;2022-12-11T11:08:02;11.70;;;4.60;;
15317;SDS011;7759;52.528;13.346;2022-12-11T11:10:29;10.80;;;5.43;;
15317;SDS011;7759;52.528;13.346;2022-12-11T11:12:58;12.23;;;5.40;;
15317;SDS011;7759;52.528;13.346;2022-12-11T11:15:25;8.77;;;4.33;;
15317;SDS011;7759;52.528;13.346;2022-12-11T11:17:53;11.03;;;5.17;;
15317;SDS011;7759;52.528;13.346;2022-12-11T11:20:21;11.77;;;5.73;;
15317;SDS011;7759;52.528;13.346;2022-12-11T11:22:53;9.10;;;5.27;;
15317;SDS011;7759;52.528;13.346;2022-12-11T11:25:26;9.30;;;4.57;;
15317;SDS011;7759;52.528;13.346;2022-12-11T11:27:54;13.10;;;4.97;;
15317;SDS011;7759;52.528;13.346;2022-12-11T11:30:25;12.77;;;5.20;;
15317;SDS011;7759;52.528;13.346;2022-12-11T11:32:56;11.87;;;4.47;;
15317;SDS011;7759;52.528;13.346;2022-12-11T11:35:25;12.07;;;5.63;;
15317;SDS011;7759;52.528;13.346;2022-12-11T11:38:02;11.73;;;5.30;;
15317;SDS011;7759;52.528;13.346;2022-12-11T11:40:29;9.97;;;5.17;;
15317;SDS011;7759;52.528;13.346;2022-12-11T11:43:16;8.67;;;4.43;;
15317;SDS011;7759;52.528;13.346;2022-12-11T11:45:54;12.20;;;4.60;;
15317;SDS011;7759;52.528;13.346;2022-12-11T11:48:32;9.03;;;4.43;;
15317;SDS011;7759;52.528;13.346;2022-12-11T11:51:21;10.53;;;5.07;;
15317;SDS011;7759;52.528;13.346;2022-12-11T11:53:50;11.90;;;4.93;;
15317;SDS011;7759;52.528;13.346;2022-12-11T11:56:20;10.60;;;5.33;;
15317;SDS011;7759;52.528;13.346;2022-12-11T12:01:33;9.83;;;4.20;;
15317;SDS011;7759;52.528;13.346;2022-12-11T12:03:59;11.97;;;5.90;;
15317;SDS011;7759;52.528;13.346;2022-12-11T12:06:35;10.53;;;4.90;;
15317;SDS011;7759;52.528;13.346;2022-12-11T12:11:39;10.27;;;4.97;;
15317;SDS011;7759;52.528;13.346;2022-12-11T12:16:39;9.87;;;4.53;;
15317;SDS011;7759;52.528;13.346;2022-12-11T12:19:14;10.97;;;5.07;;
15317;SDS011;7759;52.528;13.346;2022-12-11T12:21:46;13.30;;;4.77;;
15317;SDS011;7759;52.528;13.346;2022-12-11T12:24:16;11.50;;;4.83;;
15317;SDS011;7759;52.528;13.346;2022-12-11T12:29:27;11.63;;;5.37;;
15317;SDS011;7759;52.528;13.346;2022-12-11T12:32:00;13.37;;;4.90;;
15317;SDS011;7759;52.528;13.346;2022-12-11T12:37:05;13.57;;;5.40;;
15317;SDS011;7759;52.528;13.346;2022-12-11T12:39:41;9.87;;;4.97;;
15317;SDS011;7759;52.528;13.346;2022-12-11T12:42:14;10.40;;;4.83;;
15317;SDS011;7759;52.528;13.346;2022-12-11T12:45:02;10.90;;;5.00;;
15317;SDS011;7759;52.528;13.346;2022-12-11T12:47:30;17.77;;;7.83;;
15317;SDS011;7759;52.528;13.346;2022-12-11T12:49:57;11.77;;;5.10;;
15317;SDS011;7759;52.528;13.346;2022-12-11T12:52:31;7.13;;;3.93;;
15317;SDS011;7759;52.528;13.346;2022-12-11T12:54:59;5.73;;;2.53;;
15317;SDS011;7759;52.528;13.346;2022-12-11T12:57:53;7.00;;;3.70;;
15317;SDS011;7759;52.528;13.346;2022-12-11T13:03:00;7.30;;;3.60;;
15317;SDS011;7759;52.528;13.346;2022-12-11T13:05:28;13.73;;;6.00;;
15317;SDS011;7759;52.528;13.346;2022-12-11T13:07:56;10.57;;;4.77;;
15317;SDS011;7759;52.528;13.346;2022-12-11T13:10:43;7.60;;;3.07;;
15317;SDS011;7759;52.528;13.346;2022-12-11T13:13:30;7.17;;;3.57;;
15317;SDS011;7759;52.528;13.346;2022-12-11T13:16:07;10.63;;;5.17;;
15317;SDS011;7759;52.528;13.346;2022-12-11T13:18:34;10.33;;;4.40;;
15317;SDS011;7759;52.528;13.346;2022-12-11T13:21:02;6.23;;;3.47;;
15317;SDS011;7759;52.528;13.346;2022-12-11T13:23:29;7.73;;;3.97;;
15317;SDS011;7759;52.528;13.346;2022-12-11T13:25:57;5.37;;;3.13;;
15317;SDS011;7759;52.528;13.346;2022-12-11T13:28:44;8.53;;;4.07;;
15317;SDS011;7759;52.528;13.346;2022-12-11T13:33:47;9.87;;;5.17;;
15317;SDS011;7759;52.528;13.346;2022-12-11T13:38:45;7.50;;;3.57;;
15317;SDS011;7759;52.528;13.346;2022-12-11T13:41:11;10.97;;;5.33;;
15317;SDS011;7759;52.528;13.346;2022-12-11T13:43:38;11.07;;;4.30;;
15317;SDS011;7759;52.528;13.346;2022-12-11T13:46:07;10.33;;;4.43;;
15317;SDS011;7759;52.528;13.346;2022-12-11T13:48:35;11.50;;;4.73;;
15317;SDS011;7759;52.528;13.346;2022-12-11T13:51:03;9.17;;;4.40;;
15317;SDS011;7759;52.528;13.346;2022-12-11T13:53:29;8.83;;;4.50;;
15317;SDS011;7759;52.528;13.346;2022-12-11T13:55:56;9.00;;;5.20;;
15317;SDS011;7759;52.528;13.346;2022-12-11T13:58:22;12.43;;;5.03;;
15317;SDS011;7759;52.528;13.346;2022-12-11T14:03:35;10.67;;;4.67;;
15317;SDS011;7759;52.528;13.346;2022-12-11T14:06:03;12.27;;;5.13;;
15317;SDS011;7759;52.528;13.346;2022-12-11T14:08:33;14.97;;;5.80;;
15317;SDS011;7759;52.528;13.346;2022-12-11T14:11:00;10.03;;;4.83;;
15317;SDS011;7759;52.528;13.346;2022-12-11T14:13:28;10.23;;;5.10;;
15317;SDS011;7759;52.528;13.346;2022-12-11T14:15:56;12.43;;;5.00;;
15317;SDS011;7759;52.528;13.346;2022-12-11T14:18:23;9.70;;;4.67;;
15317;SDS011;7759;52.528;13.346;2022-12-11T14:20:53;11.03;;;5.13;;
15317;SDS011;7759;52.528;13.346;2022-12-11T14:23:21;13.00;;;4.30;;
15317;SDS011;7759;52.528;13.346;2022-12-11T14:25:51;11.37;;;5.43;;
15317;SDS011;7759;52.528;13.346;2022-12-11T14:28:17;10.30;;;4.60;;
15317;SDS011;7759;52.528;13.346;2022-12-11T14:30:45;10.37;;;4.77;;
15317;SDS011;7759;52.528;13.346;2022-12-11T14:33:12;13.70;;;4.63;;
15317;SDS011;7759;52.528;13.346;2022-12-11T14:35:39;11.53;;;4.67;;
15317;SDS011;7759;52.528;13.346;2022-12-11T14:38:09;8.20;;;4.10;;
15317;SDS011;7759;52.528;13.346;2022-12-11T14:40:37;11.57;;;5.20;;
15317;SDS011;7759;52.528;13.346;2022-12-11T14:43:08;8.13;;;4.43;;
15317;SDS011;7759;52.528;13.346;2022-12-11T14:45:37;8.60;;;4.23;;
15317;SDS011;7759;52.528;13.346;2022-12-11T14:48:07;9.33;;;4.53;;
15317;SDS011;7759;52.528;13.346;2022-12-11T14:50:42;9.03;;;4.27;;
15317;SDS011;7759;52.528;13.346;2022-12-11T14:53:16;12.57;;;5.57;;
15317;SDS011;7759;52.528;13.346;2022-12-11T14:55:44;9.90;;;5.57;;
15317;SDS011;7759;52.528;13.346;2022-12-11T14:58:14;9.47;;;4.57;;
15317;SDS011;7759;52.528;13.346;2022-12-11T15:00:40;11.27;;;5.00;;
15317;SDS011;7759;52.528;13.346;2022-12-11T15:05:54;11.73;;;5.50;;
15317;SDS011;7759;52.528;13.346;2022-12-11T15:08:23;11.67;;;5.50;;
15317;SDS011;7759;52.528;13.346;2022-12-11T15:11:04;14.10;;;5.07;;
15317;SDS011;7759;52.528;13.346;2022-12-11T15:13:31;9.70;;;5.00;;
15317;SDS011;7759;52.528;13.346;2022-12-11T15:15:57;12.30;;;4.90;;
15317;SDS011;7759;52.528;13.346;2022-12-11T15:18:28;16.07;;;5.50;;
15317;SDS011;7759;52.528;13.346;2022-12-11T15:21:12;10.30;;;5.27;;
15317;SDS011;7759;52.528;13.346;2022-12-11T15:26:09;11.33;;;4.87;;
15317;SDS011;7759;52.528;13.346;2022-12-11T15:28:36;9.43;;;4.57;;
15317;SDS011;7759;52.528;13.346;2022-12-11T15:31:06;9.90;;;5.27;;
15317;SDS011;7759;52.528;13.346;2022-12-11T15:33:32;13.40;;;6.33;;
15317;SDS011;7759;52.528;13.346;2022-12-11T15:36:00;12.10;;;5.17;;
15317;SDS011;7759;52.528;13.346;2022-12-11T15:40:58;13.07;;;6.10;;